Time;durP1;ratioP1;P1;durP2;ratioP2;P2;SDS_P1;SDS_P2;PMS_P1;PMS_P2;Temp;Humidity;BMP_temperature;BMP_pressure;BME280_temperature;BME280_humidity;BME280_pressure;Samples;Min_cycle;Max_cycle;Signal;HPM_P1;HPM_P2
2020/12/28 00:02:06;;;;;;;6.50;2.75;;;;;;;1.84;91.43;98041.69;5032790;28;20059;-83
2020/12/28 00:04:31;;;;;;;6.15;3.00;;;;;;;1.81;91.37;98063.75;5015097;28;20060;-83
2020/12/28 00:06:56;;;;;;;6.25;2.15;;;;;;;1.78;91.55;98049.81;5015105;28;20433;-82
2020/12/28 00:09:22;;;;;;;6.72;3.30;;;;;;;1.80;91.41;98062.13;5032424;28;20029;-83
2020/12/28 00:11:53;;;;;;;6.28;2.55;;;;;;;1.82;91.46;98059.97;5032698;28;20441;-82
2020/12/28 00:14:18;;;;;;;8.80;3.35;;;;;;;1.83;91.05;98072.31;5025752;28;20076;-83
2020/12/28 00:16:43;;;;;;;6.22;3.35;;;;;;;1.83;91.12;98061.56;5032475;28;20052;-82
2020/12/28 00:19:09;;;;;;;6.22;2.50;;;;;;;1.85;91.20;98062.09;5032538;28;20480;-82
2020/12/28 00:21:34;;;;;;;8.68;3.25;;;;;;;1.85;91.42;98051.34;5032553;28;20029;-84
2020/12/28 00:23:59;;;;;;;7.95;3.47;;;;;;;1.87;90.85;98065.31;5014650;28;20049;-82
2020/12/28 00:26:25;;;;;;;3.25;2.40;;;;;;;1.88;91.46;98064.22;5014766;28;20052;-84
2020/12/28 00:28:50;;;;;;;8.00;3.55;;;;;;;1.87;91.03;98051.88;5032164;28;20021;-82
2020/12/28 00:31:16;;;;;;;6.15;3.90;;;;;;;1.86;91.38;98047.59;5032391;28;20475;-83
2020/12/28 00:33:42;;;;;;;6.75;3.45;;;;;;;1.86;91.25;98052.97;5032483;28;20030;-83
2020/12/28 00:36:07;;;;;;;8.98;4.18;;;;;;;1.85;91.43;98054.03;5014781;28;20033;-83
2020/12/28 00:38:33;;;;;;;6.38;3.53;;;;;;;1.84;90.97;98041.69;5032580;28;20418;-84
2020/12/28 00:40:58;;;;;;;8.35;3.92;;;;;;;1.84;91.43;98042.50;5032317;28;20018;-84
2020/12/28 00:43:23;;;;;;;8.27;4.35;;;;;;;1.85;90.77;98059.41;5014816;28;20033;-82
2020/12/28 00:45:49;;;;;;;9.00;3.95;;;;;;;1.85;90.80;98057.53;4998226;28;20032;-83
2020/12/28 00:48:14;;;;;;;7.35;3.60;;;;;;;1.86;91.03;98050.28;5014677;28;20029;-83
2020/12/28 00:50:39;;;;;;;10.43;3.85;;;;;;;1.87;91.36;98058.03;5033436;28;20026;-83
2020/12/28 00:53:05;;;;;;;6.78;3.80;;;;;;;1.88;91.07;98042.72;5018554;28;20029;-83
2020/12/28 00:55:30;;;;;;;9.00;4.28;;;;;;;1.89;91.01;98026.34;5036318;28;20037;-83
2020/12/28 00:57:55;;;;;;;5.60;3.58;;;;;;;1.90;91.14;98057.47;5002172;28;20017;-83
2020/12/28 01:00:21;;;;;;;8.50;4.32;;;;;;;1.89;91.01;98050.50;5036139;28;20470;-83
2020/12/28 01:02:46;;;;;;;9.13;4.00;;;;;;;1.90;91.47;98048.63;5001875;28;20025;-82
2020/12/28 01:05:12;;;;;;;5.82;3.75;;;;;;;1.93;91.18;98066.84;5036211;28;20071;-84
2020/12/28 01:07:37;;;;;;;9.30;4.35;;;;;;;1.93;90.97;98048.03;5035714;28;20035;-83
2020/12/28 01:10:03;;;;;;;11.02;4.20;;;;;;;1.92;91.17;98060.69;5036070;28;20021;-84
2020/12/28 01:12:31;;;;;;;6.68;3.08;;;;;;;1.92;90.86;98046.47;5036003;28;20453;-83
2020/12/28 01:14:56;;;;;;;10.02;4.25;;;;;;;1.90;91.22;98051.31;5023633;28;20048;-83
2020/12/28 01:17:21;;;;;;;7.43;4.05;;;;;;;1.89;90.30;98061.25;5043785;28;20022;-82
2020/12/28 01:19:47;;;;;;;8.57;4.63;;;;;;;1.90;90.77;98072.78;5017513;28;20031;-82
2020/12/28 01:22:12;;;;;;;8.65;3.67;;;;;;;1.89;91.25;98052.41;5052849;28;20533;-82
2020/12/28 01:24:37;;;;;;;6.78;4.28;;;;;;;1.89;90.58;98055.09;5043898;28;20025;-82
2020/12/28 01:27:03;;;;;;;9.70;4.30;;;;;;;1.90;91.20;98062.06;5049779;28;20036;-83
2020/12/28 01:29:28;;;;;;;12.60;4.47;;;;;;;1.89;91.15;98061.25;5014614;28;20034;-82
2020/12/28 01:31:54;;;;;;;8.57;4.82;;;;;;;1.89;90.68;98050.50;5012006;28;20031;-82
2020/12/28 01:34:20;;;;;;;9.90;4.65;;;;;;;1.90;91.07;98040.56;5004195;28;20033;-83
2020/12/28 01:36:45;;;;;;;9.35;5.15;;;;;;;1.88;90.93;98048.09;5035457;28;20037;-82
2020/12/28 01:39:11;;;;;;;10.65;5.43;;;;;;;1.88;90.85;98058.84;5017699;28;20059;-83
2020/12/28 01:41:36;;;;;;;10.95;5.90;;;;;;;1.87;90.94;98057.25;5017910;28;20467;-83
2020/12/28 01:44:01;;;;;;;10.52;5.55;;;;;;;1.88;90.72;98069.59;5017762;28;20025;-82
2020/12/28 01:46:27;;;;;;;10.27;6.22;;;;;;;1.88;90.60;98061.53;5017833;28;20029;-82
2020/12/28 01:48:52;;;;;;;14.10;6.32;;;;;;;1.90;91.00;98056.69;5017610;28;20030;-84
2020/12/28 01:51:18;;;;;;;11.32;5.65;;;;;;;1.89;90.89;98068.50;5035225;28;20025;-82
2020/12/28 01:53:43;;;;;;;10.35;5.28;;;;;;;1.89;90.78;98071.19;5001319;28;20025;-82
2020/12/28 01:56:08;;;;;;;13.90;6.97;;;;;;;1.90;91.12;98078.16;5017461;28;20028;-83
2020/12/28 01:58:34;;;;;;;12.10;7.10;;;;;;;1.90;90.87;98062.06;5035107;28;20022;-83
2020/12/28 02:00:59;;;;;;;12.50;6.32;;;;;;;1.91;90.82;98066.31;5035130;28;20025;-83
2020/12/28 02:03:25;;;;;;;12.25;5.93;;;;;;;1.92;90.64;98059.88;5034520;28;20096;-82
2020/12/28 02:05:52;;;;;;;14.25;7.07;;;;;;;1.90;90.68;98072.78;5017342;28;20479;-83
2020/12/28 02:08:17;;;;;;;13.60;7.25;;;;;;;1.93;90.85;98072.22;5017242;28;20056;-84
2020/12/28 02:10:43;;;;;;;14.52;7.35;;;;;;;1.93;91.12;98072.22;4984765;28;20436;-83
2020/12/28 02:13:08;;;;;;;13.32;7.70;;;;;;;1.93;90.81;98074.91;5048423;28;20021;-84
2020/12/28 02:15:33;;;;;;;12.13;7.68;;;;;;;1.94;90.94;98079.22;5035271;28;20036;-82
2020/12/28 02:17:59;;;;;;;13.05;6.53;;;;;;;1.94;90.81;98065.78;5034813;28;20024;-83
2020/12/28 02:20:24;;;;;;;11.20;7.50;;;;;;;1.94;90.91;98052.34;5017115;28;20029;-83
2020/12/28 02:22:50;;;;;;;14.00;7.10;;;;;;;1.94;90.36;98069.25;5017195;28;20049;-82
2020/12/28 02:25:15;;;;;;;14.93;7.43;;;;;;;1.95;90.63;98081.59;5016927;28;20071;-84
2020/12/28 02:27:40;;;;;;;17.42;7.18;;;;;;;1.94;91.03;98065.78;5017165;28;20494;-83
2020/12/28 02:30:06;;;;;;;22.42;7.28;;;;;;;1.92;91.08;98055.31;5035084;28;20032;-83
2020/12/28 02:32:31;;;;;;;14.55;7.55;;;;;;;1.91;90.72;98055.56;5017083;28;20383;-82
2020/12/28 02:34:57;;;;;;;11.25;6.25;;;;;;;1.92;90.69;98062.56;5017118;28;20387;-83
2020/12/28 02:37:22;;;;;;;15.05;7.80;;;;;;;1.90;90.30;98068.22;5034523;28;20022;-84
2020/12/28 02:39:48;;;;;;;13.32;7.25;;;;;;;1.88;90.59;98064.22;5016922;28;20029;-82
2020/12/28 02:42:14;;;;;;;20.88;8.95;;;;;;;1.87;90.70;98060.72;5000307;28;20037;-83
2020/12/28 02:44:40;;;;;;;13.20;7.30;;;;;;;1.87;90.68;98066.09;5017053;28;20068;-83
2020/12/28 02:47:05;;;;;;;13.10;7.05;;;;;;;1.89;90.47;98065.84;5016889;28;20025;-83
2020/12/28 02:49:30;;;;;;;15.45;8.23;;;;;;;1.90;90.90;98067.41;5016295;28;20030;-83
2020/12/28 02:51:56;;;;;;;16.25;7.75;;;;;;;1.90;91.26;98062.84;5034642;28;20328;-83
2020/12/28 02:54:21;;;;;;;14.63;7.72;;;;;;;1.91;90.70;98066.31;5034395;28;20018;-84
2020/12/28 02:56:47;;;;;;;11.40;7.28;;;;;;;1.90;90.97;98062.06;5016522;28;20058;-83
2020/12/28 02:59:12;;;;;;;13.30;7.75;;;;;;;1.92;91.31;98051.81;5016234;28;20021;-83
2020/12/28 03:01:37;;;;;;;14.05;7.05;;;;;;;1.94;91.11;98055.84;5016349;28;20383;-84
2020/12/28 03:04:06;;;;;;;12.20;8.57;;;;;;;1.96;90.98;98056.34;5034012;28;20029;-83
2020/12/28 03:06:31;;;;;;;13.65;8.10;;;;;;;1.96;90.78;98055.53;5016130;28;20031;-84
2020/12/28 03:08:57;;;;;;;15.02;7.85;;;;;;;1.96;91.17;98059.03;5033904;28;20025;-82
2020/12/28 03:11:22;;;;;;;13.00;7.18;;;;;;;1.98;90.82;98058.75;5034121;28;20021;-83
2020/12/28 03:13:48;;;;;;;15.60;8.13;;;;;;;1.97;90.89;98057.94;5013414;28;20486;-81
2020/12/28 03:16:13;;;;;;;16.55;8.07;;;;;;;1.98;90.74;98058.75;5016096;28;20033;-83
2020/12/28 03:18:38;;;;;;;15.02;8.25;;;;;;;1.98;90.63;98070.28;4999668;28;20021;-83
2020/12/28 03:21:04;;;;;;;15.32;8.82;;;;;;;1.98;90.46;98072.19;5016116;28;20482;-82
2020/12/28 03:23:29;;;;;;;16.05;8.00;;;;;;;1.97;90.66;98068.69;5033244;28;20056;-84
2020/12/28 03:25:54;;;;;;;13.55;7.93;;;;;;;1.97;90.94;98078.66;5015918;28;20115;-83
2020/12/28 03:28:20;;;;;;;12.98;8.07;;;;;;;1.98;90.73;98077.56;5016039;28;20043;-82
2020/12/28 03:30:45;;;;;;;14.85;8.73;;;;;;;1.98;90.73;98089.09;5015603;28;20029;-83
2020/12/28 03:33:11;;;;;;;15.63;8.95;;;;;;;2.00;90.72;98088.81;4979970;28;20026;-83
2020/12/28 03:35:43;;;;;;;12.48;7.45;;;;;;;2.02;91.07;98089.34;5086516;27;20343;-83
2020/12/28 03:38:08;;;;;;;15.65;9.27;;;;;;;2.04;90.95;98081.78;5068638;28;20045;-83
2020/12/28 03:40:34;;;;;;;15.32;8.57;;;;;;;2.02;90.69;98089.34;5051846;28;20074;-82
2020/12/28 03:42:59;;;;;;;13.98;7.57;;;;;;;2.02;90.74;98075.91;5069778;28;20035;-84
2020/12/28 03:45:24;;;;;;;18.05;7.47;;;;;;;2.03;90.51;98066.75;5069723;28;20025;-84
2020/12/28 03:47:50;;;;;;;16.83;8.73;;;;;;;2.04;90.66;98079.09;5068451;28;20355;-83
2020/12/28 03:50:15;;;;;;;15.00;8.07;;;;;;;2.05;90.89;98063.78;5069540;28;20025;-84
2020/12/28 03:52:40;;;;;;;13.82;8.52;;;;;;;2.05;90.65;98064.59;5068303;28;20013;-83
2020/12/28 03:55:07;;;;;;;16.08;8.10;;;;;;;2.08;91.21;98073.97;5068368;28;20017;-83
2020/12/28 03:57:32;;;;;;;13.77;8.35;;;;;;;2.09;90.71;98076.34;5069430;28;20025;-84
2020/12/28 03:59:58;;;;;;;16.40;9.15;;;;;;;2.10;90.65;98077.97;5068292;28;20377;-83
2020/12/28 04:02:23;;;;;;;13.75;7.63;;;;;;;2.12;90.75;98067.72;5068393;28;20048;-83
2020/12/28 04:04:48;;;;;;;19.05;8.35;;;;;;;2.13;90.80;98087.34;5051676;28;20027;-83
2020/12/28 04:07:14;;;;;;;14.18;8.23;;;;;;;2.14;90.56;98081.69;5069386;28;20029;-82
2020/12/28 04:09:40;;;;;;;16.60;8.43;;;;;;;2.15;90.69;98080.59;5069155;28;20012;-83
2020/12/28 04:12:05;;;;;;;23.20;10.10;;;;;;;2.17;90.98;98089.16;5069063;28;20436;-85
2020/12/28 04:14:31;;;;;;;20.15;10.30;;;;;;;2.20;90.83;98077.84;5067888;28;20029;-84
2020/12/28 04:16:56;;;;;;;20.48;9.85;;;;;;;2.20;90.63;98082.44;5051071;28;20036;-84
2020/12/28 04:19:22;;;;;;;21.25;9.55;;;;;;;2.20;91.05;98085.91;5051178;28;20024;-83
2020/12/28 04:21:48;;;;;;;14.40;7.90;;;;;;;2.21;90.31;98090.22;5067638;28;20025;-83
2020/12/28 04:24:15;;;;;;;15.38;9.23;;;;;;;2.22;90.79;98096.38;5069019;28;20062;-84
2020/12/28 04:26:44;;;;;;;19.02;8.90;;;;;;;2.22;90.51;98097.19;5067712;28;20024;-84
2020/12/28 04:29:12;;;;;;;18.80;8.88;;;;;;;2.24;90.43;98102.28;5068825;28;20013;-83
2020/12/28 04:31:38;;;;;;;15.18;8.25;;;;;;;2.25;91.01;98089.63;5067430;28;20494;-82
2020/12/28 04:34:04;;;;;;;21.60;9.38;;;;;;;2.25;90.53;98090.44;5068209;28;20079;-83
2020/12/28 04:36:29;;;;;;;13.52;8.43;;;;;;;2.26;90.29;98096.59;5050894;28;20025;-84
2020/12/28 04:38:55;;;;;;;14.48;8.20;;;;;;;2.27;90.41;98095.53;5067167;28;20029;-84
2020/12/28 04:41:20;;;;;;;16.83;8.77;;;;;;;2.29;90.50;98101.41;5068568;28;20028;-84
2020/12/28 04:43:46;;;;;;;14.13;8.10;;;;;;;2.30;90.65;98095.75;5067161;28;20024;-82
2020/12/28 04:46:11;;;;;;;15.00;8.40;;;;;;;2.31;90.29;98093.88;5058684;28;20139;-83
2020/12/28 04:48:36;;;;;;;17.42;8.73;;;;;;;2.33;90.07;98091.69;5055005;28;20024;-83
2020/12/28 04:51:02;;;;;;;16.73;8.90;;;;;;;2.34;90.15;98090.59;5053776;28;20025;-82
2020/12/28 04:53:28;;;;;;;16.50;8.55;;;;;;;2.34;90.22;98095.97;5055028;28;20072;-83
2020/12/28 04:55:53;;;;;;;16.77;8.05;;;;;;;2.37;90.51;98092.72;5053797;28;20033;-83
2020/12/28 04:58:19;;;;;;;15.50;8.52;;;;;;;2.36;89.81;98112.63;5037417;28;20021;-83
2020/12/28 05:00:45;;;;;;;12.02;7.15;;;;;;;2.36;90.11;98102.69;5037219;28;20028;-83
2020/12/28 05:03:10;;;;;;;13.13;6.53;;;;;;;2.38;90.57;98111.25;5037177;28;20435;-84
2020/12/28 05:05:45;;;;;;;14.85;8.65;;;;;;;2.39;89.91;98112.06;5054998;28;20017;-82
2020/12/28 05:08:11;;;;;;;14.02;8.10;;;;;;;2.40;89.82;98119.03;5053705;28;20140;-83
2020/12/28 05:10:37;;;;;;;13.32;7.90;;;;;;;2.41;89.94;98116.06;5053716;28;20029;-83
2020/12/28 05:13:10;;;;;;;14.05;8.23;;;;;;;2.42;90.39;98122.25;5053621;28;20021;-84
2020/12/28 05:15:51;;;;;;;14.45;7.93;;;;;;;2.43;89.68;98118.47;5053566;28;20029;-83
2020/12/28 05:18:17;;;;;;;17.27;7.88;;;;;;;2.44;89.87;98114.69;5054876;28;20032;-84
2020/12/28 05:20:44;;;;;;;19.25;8.88;;;;;;;2.42;90.40;98127.63;5054617;28;20017;-83
2020/12/28 05:23:09;;;;;;;16.63;8.18;;;;;;;2.44;90.10;98125.44;5054970;28;20021;-83
2020/12/28 05:25:36;;;;;;;11.80;7.72;;;;;;;2.43;89.62;98135.41;5053313;28;20364;-84
2020/12/28 05:28:02;;;;;;;14.82;8.32;;;;;;;2.44;90.00;98125.44;5036934;28;20100;-83
2020/12/28 05:30:28;;;;;;;12.48;7.25;;;;;;;2.44;89.93;98133.50;5054321;28;20116;-83
2020/12/28 05:32:53;;;;;;;17.70;7.18;;;;;;;2.44;90.42;98136.19;5036556;28;20100;-83
2020/12/28 05:35:18;;;;;;;12.10;6.72;;;;;;;2.43;90.18;98129.22;5054308;28;20548;-85
2020/12/28 05:37:45;;;;;;;10.52;6.30;;;;;;;2.45;90.07;98137.78;5054417;28;20028;-83
2020/12/28 05:40:11;;;;;;;12.48;7.28;;;;;;;2.44;89.59;98125.44;5036554;28;20032;-83
2020/12/28 05:42:37;;;;;;;11.50;6.95;;;;;;;2.44;89.79;98141.59;5036426;28;20032;-83
2020/12/28 05:45:07;;;;;;;11.05;7.05;;;;;;;2.43;90.20;98129.22;5053221;28;20025;-85
2020/12/28 05:47:32;;;;;;;13.02;6.43;;;;;;;2.44;89.99;98136.19;5036631;28;20029;-84
2020/12/28 05:49:58;;;;;;;14.60;7.97;;;;;;;2.43;89.58;98140.78;5036495;28;20029;-83
2020/12/28 05:52:23;;;;;;;11.85;6.60;;;;;;;2.44;89.75;98125.44;5052804;28;20048;-84
2020/12/28 05:54:49;;;;;;;13.00;7.32;;;;;;;2.44;90.01;98133.50;5049536;28;20021;-85
2020/12/28 05:57:14;;;;;;;13.90;6.85;;;;;;;2.44;89.52;98136.19;5035398;28;20108;-84
2020/12/28 05:59:41;;;;;;;10.80;6.32;;;;;;;2.44;90.02;98131.63;5053861;28;20028;-84
2020/12/28 06:02:07;;;;;;;13.15;7.43;;;;;;;2.43;90.06;98123.84;5052772;28;20108;-84
2020/12/28 06:04:32;;;;;;;12.05;6.53;;;;;;;2.43;89.52;98140.78;5036046;28;20033;-84
2020/12/28 06:07:02;;;;;;;11.98;6.97;;;;;;;2.42;89.64;98141.84;5035875;28;20053;-83
2020/12/28 06:09:27;;;;;;;11.85;7.10;;;;;;;2.43;89.86;98156.13;5052505;28;20017;-83
2020/12/28 06:12:06;;;;;;;12.20;6.50;;;;;;;2.43;89.51;98131.91;5052580;28;20039;-83
2020/12/28 06:14:38;;;;;;;11.75;7.10;;;;;;;2.42;90.18;98157.97;5061460;28;20470;-83
2020/12/28 06:17:08;;;;;;;;;;;;;;;2.43;90.08;98161.50;5052844;28;20037;-83
2020/12/28 06:19:33;;;;;;;9.60;5.50;;;;;;;2.43;89.35;98161.50;5052308;28;19909;-83
2020/12/28 06:21:59;;;;;;;12.15;6.55;;;;;;;2.41;89.98;98163.66;5053513;28;20040;-83
2020/12/28 06:24:32;;;;;;;11.80;7.13;;;;;;;2.40;89.60;98157.50;5052341;28;20024;-83
2020/12/28 06:27:07;;;;;;;13.02;6.82;;;;;;;2.40;89.55;98167.41;5052127;28;20021;-82
2020/12/28 06:29:34;;;;;;;10.80;5.75;;;;;;;2.41;89.64;98174.41;5035694;28;20029;-84
2020/12/28 06:32:15;;;;;;;12.40;7.18;;;;;;;2.41;89.77;98169.03;5051910;28;20025;-81
2020/12/28 06:34:43;;;;;;;13.18;6.93;;;;;;;2.40;89.80;98167.41;5051932;28;20041;-84
2020/12/28 06:37:08;;;;;;;11.70;6.82;;;;;;;2.40;89.71;98175.47;5051908;28;20033;-82
2020/12/28 06:39:33;;;;;;;12.45;8.05;;;;;;;2.38;90.08;98172.31;5053265;28;20073;-83
2020/12/28 06:42:12;;;;;;;17.17;7.05;;;;;;;2.39;89.69;98177.38;5053191;28;20075;-82
2020/12/28 06:44:38;;;;;;;10.95;7.25;;;;;;;2.41;89.25;98179.78;5052102;28;20379;-83
2020/12/28 06:47:17;;;;;;;10.18;6.05;;;;;;;2.41;89.62;98182.47;5051966;28;20025;-84
2020/12/28 06:49:43;;;;;;;11.88;7.00;;;;;;;2.41;89.91;98193.25;5052087;28;20025;-83
2020/12/28 06:52:08;;;;;;;11.73;6.88;;;;;;;2.42;90.24;98189.44;5053203;28;20025;-83
2020/12/28 06:54:34;;;;;;;11.00;6.57;;;;;;;2.43;89.97;98191.06;5051532;28;20032;-83
2020/12/28 06:57:05;;;;;;;12.20;6.90;;;;;;;2.44;89.57;98192.66;5052001;28;20060;-82
2020/12/28 06:59:32;;;;;;;12.60;7.25;;;;;;;2.44;89.63;98190.78;5035252;28;20021;-83
2020/12/28 07:02:01;;;;;;;13.30;7.15;;;;;;;2.45;89.39;98191.56;5052040;28;20425;-82
2020/12/28 07:04:26;;;;;;;13.63;6.93;;;;;;;2.45;89.88;98199.63;5051894;28;20024;-83
2020/12/28 07:07:00;;;;;;;12.05;7.25;;;;;;;2.46;89.97;98201.25;5035161;28;20032;-83
2020/12/28 07:09:26;;;;;;;13.65;7.65;;;;;;;2.48;89.45;98200.97;5035137;28;20075;-85
2020/12/28 07:11:51;;;;;;;11.93;6.88;;;;;;;2.49;89.94;98222.19;5052873;28;20021;-84
2020/12/28 07:14:18;;;;;;;14.80;8.15;;;;;;;2.49;89.70;98200.69;5062636;28;20025;-84
2020/12/28 07:16:43;;;;;;;15.23;7.90;;;;;;;2.51;89.42;98205.75;5034945;28;20024;-83
2020/12/28 07:19:08;;;;;;;14.23;7.05;;;;;;;2.50;89.77;98213.03;5051539;28;20424;-84
2020/12/28 07:21:35;;;;;;;15.48;8.02;;;;;;;2.51;89.73;98217.34;5035346;28;20032;-84
2020/12/28 07:24:00;;;;;;;14.23;7.70;;;;;;;2.53;89.61;98208.97;5052421;28;20020;-84
2020/12/28 07:26:27;;;;;;;16.10;8.27;;;;;;;2.54;89.73;98216.78;5052791;28;20021;-84
2020/12/28 07:28:52;;;;;;;15.07;7.75;;;;;;;2.54;89.49;98227.53;5018589;28;20025;-83
2020/12/28 07:31:20;;;;;;;14.25;7.78;;;;;;;2.55;90.14;98223.75;5052484;28;20381;-84
2020/12/28 07:33:46;;;;;;;13.80;8.18;;;;;;;2.56;90.03;98227.22;5052286;28;20110;-82
2020/12/28 07:36:12;;;;;;;17.20;8.38;;;;;;;2.56;89.36;98225.34;5035961;28;20492;-83
2020/12/28 07:38:41;;;;;;;16.73;8.50;;;;;;;2.58;90.08;98227.75;5035746;28;20411;-82
2020/12/28 07:41:06;;;;;;;17.80;7.82;;;;;;;2.58;89.44;98227.75;5037351;28;20050;-82
2020/12/28 07:43:32;;;;;;;16.02;7.95;;;;;;;2.59;89.31;98235.56;5054301;28;20021;-83
2020/12/28 07:46:32;;;;;;;14.43;7.85;;;;;;;2.59;89.80;98230.16;5054875;28;20018;-81
2020/12/28 07:49:36;;;;;;;13.57;7.53;;;;;;;2.58;89.64;98236.63;5053130;28;20041;-83
2020/12/28 07:52:07;;;;;;;15.98;7.30;;;;;;;2.58;89.79;98244.69;5053931;28;20061;-82
2020/12/28 07:54:44;;;;;;;17.98;8.25;;;;;;;2.59;89.57;98250.88;5055133;28;20025;-83
2020/12/28 07:57:16;;;;;;;15.23;7.90;;;;;;;2.59;90.01;98240.94;5054538;28;20064;-82
2020/12/28 07:59:56;;;;;;;16.23;8.60;;;;;;;2.61;89.25;98248.69;5054654;28;20044;-81
2020/12/28 08:02:32;;;;;;;15.27;7.75;;;;;;;2.61;90.06;98246.81;5055193;28;20262;-83
2020/12/28 08:04:57;;;;;;;18.40;9.65;;;;;;;2.62;90.07;98251.13;5054116;28;20020;-82
2020/12/28 08:07:23;;;;;;;14.50;8.75;;;;;;;2.63;89.90;98250.03;5036930;28;20099;-82
2020/12/28 08:09:54;;;;;;;17.65;8.95;;;;;;;2.64;89.23;98257.00;5054142;28;20025;-82
2020/12/28 08:12:21;;;;;;;15.87;7.23;;;;;;;2.67;89.72;98245.69;5036158;28;20021;-82
2020/12/28 08:14:53;;;;;;;15.88;9.07;;;;;;;2.70;89.53;98254.25;5054043;28;20025;-83
2020/12/28 08:17:22;;;;;;;18.08;9.43;;;;;;;2.73;90.04;98256.38;5054725;28;20104;-83
2020/12/28 08:19:47;;;;;;;17.92;9.13;;;;;;;2.76;89.50;98263.91;5055332;28;20048;-82
2020/12/28 08:22:21;;;;;;;16.58;8.75;;;;;;;2.79;89.68;98263.31;5057701;28;20025;-83
2020/12/28 08:24:58;;;;;;;23.33;9.32;;;;;;;2.81;89.71;98264.66;5055405;28;20021;-83
2020/12/28 08:27:25;;;;;;;21.00;10.38;;;;;;;2.84;89.87;98258.69;5054510;28;20364;-83
2020/12/28 08:29:51;;;;;;;18.88;8.82;;;;;;;2.88;89.99;98253.53;5054210;28;20035;-83
2020/12/28 08:32:16;;;;;;;17.65;9.95;;;;;;;2.91;90.02;98258.34;5054426;28;20017;-82
2020/12/28 08:34:42;;;;;;;20.52;9.10;;;;;;;2.94;89.98;98244.31;5055387;28;20036;-83
2020/12/28 08:37:07;;;;;;;20.70;10.00;;;;;;;2.98;89.72;98258.81;5055265;28;20044;-83
2020/12/28 08:39:35;;;;;;;16.98;10.43;;;;;;;2.98;89.49;98269.56;5054404;28;20029;-83
2020/12/28 08:42:01;;;;;;;19.40;9.52;;;;;;;3.02;90.01;98261.72;5054161;28;20024;-82
2020/12/28 08:44:34;;;;;;;17.77;9.88;;;;;;;3.05;90.17;98264.63;5037519;28;20012;-82
2020/12/28 08:47:03;;;;;;;17.13;9.63;;;;;;;3.06;89.48;98266.25;5037920;28;20024;-82
2020/12/28 08:49:32;;;;;;;12.98;7.85;;;;;;;3.10;89.86;98261.09;5055281;28;20431;-82
2020/12/28 08:52:12;;;;;;;18.08;10.10;;;;;;;3.12;89.86;98245.47;5055524;28;20025;-83
2020/12/28 08:54:37;;;;;;;26.50;8.98;;;;;;;3.13;89.94;98246.25;5054912;28;20032;-84
2020/12/28 08:57:03;;;;;;;21.42;9.88;;;;;;;3.16;89.58;98253.75;5054040;28;20415;-84
2020/12/28 08:59:28;;;;;;;19.85;10.40;;;;;;;3.18;89.50;98259.66;5053664;28;20031;-84
2020/12/28 09:01:54;;;;;;;16.58;10.13;;;;;;;3.19;89.89;98264.78;5054140;28;20021;-83
2020/12/28 09:04:20;;;;;;;21.30;10.90;;;;;;;3.21;89.94;98270.66;5053741;28;20330;-84
2020/12/28 09:06:45;;;;;;;19.58;9.50;;;;;;;3.22;89.60;98271.44;5053830;28;20398;-83
2020/12/28 09:09:11;;;;;;;18.65;9.77;;;;;;;3.24;89.73;98272.78;5054247;28;20032;-84
2020/12/28 09:11:36;;;;;;;19.65;9.32;;;;;;;3.28;90.04;98275.72;5037177;28;20467;-84
2020/12/28 09:14:01;;;;;;;19.05;9.45;;;;;;;3.29;89.64;98263.84;5054886;28;20403;-83
2020/12/28 09:16:27;;;;;;;18.27;10.55;;;;;;;3.31;89.51;98267.06;5054959;28;20036;-84
2020/12/28 09:18:52;;;;;;;15.90;9.38;;;;;;;3.32;89.46;98263.25;5055426;28;20021;-82
2020/12/28 09:21:18;;;;;;;16.30;9.18;;;;;;;3.36;89.49;98268.88;5053492;28;20031;-83
2020/12/28 09:23:43;;;;;;;16.65;8.85;;;;;;;3.36;89.67;98264.31;5055031;28;20028;-85
2020/12/28 09:26:08;;;;;;;16.15;9.85;;;;;;;3.37;89.53;98260.50;5065216;28;20112;-83
2020/12/28 09:28:34;;;;;;;20.10;9.02;;;;;;;3.39;89.53;98271.81;5053850;28;20024;-83
2020/12/28 09:30:59;;;;;;;18.65;9.30;;;;;;;3.42;89.63;98273.13;5070237;28;20021;-83
2020/12/28 09:33:24;;;;;;;16.70;9.82;;;;;;;3.43;89.74;98285.47;5070046;28;20035;-82
2020/12/28 09:35:51;;;;;;;17.80;9.50;;;;;;;3.44;89.68;98287.91;5060509;28;20017;-84
2020/12/28 09:38:17;;;;;;;21.05;9.57;;;;;;;3.46;89.98;98293.78;5049922;28;20028;-84
2020/12/28 09:40:43;;;;;;;17.10;9.93;;;;;;;3.47;89.54;98297.28;5053528;28;20029;-84
2020/12/28 09:43:08;;;;;;;19.40;9.48;;;;;;;3.49;89.62;98285.16;5038704;28;20036;-83
2020/12/28 09:45:37;;;;;;;15.90;8.65;;;;;;;3.51;89.29;98282.94;5036365;28;20382;-84
2020/12/28 09:48:05;;;;;;;18.40;9.27;;;;;;;3.52;89.58;98289.94;5035889;28;20107;-83
2020/12/28 09:50:31;;;;;;;17.27;9.15;;;;;;;3.56;89.41;98288.28;5054041;28;20025;-84
2020/12/28 09:52:56;;;;;;;17.35;9.75;;;;;;;3.56;89.34;98290.97;5051640;28;20028;-82
2020/12/28 09:55:22;;;;;;;18.10;10.45;;;;;;;3.60;89.51;98291.22;5052750;28;20466;-82
2020/12/28 09:57:48;;;;;;;18.02;10.48;;;;;;;3.63;89.94;98296.00;5052111;28;20024;-82
2020/12/28 10:00:14;;;;;;;18.20;11.23;;;;;;;3.64;89.20;98292.22;5053006;28;20025;-84
2020/12/28 10:02:40;;;;;;;17.00;9.98;;;;;;;3.66;89.84;98283.84;5051940;28;20029;-83
2020/12/28 10:05:07;;;;;;;21.50;10.65;;;;;;;3.69;89.43;98296.75;5036187;28;20017;-83
2020/12/28 10:07:33;;;;;;;19.73;10.35;;;;;;;3.71;89.79;98286.47;5052918;28;20035;-82
2020/12/28 10:09:59;;;;;;;17.05;10.25;;;;;;;3.73;89.74;98286.97;5052461;28;20021;-82
2020/12/28 10:12:24;;;;;;;18.27;10.73;;;;;;;3.74;89.86;98291.28;5052112;28;20039;-82
2020/12/28 10:14:50;;;;;;;16.40;10.27;;;;;;;3.75;89.45;98282.91;5053591;28;20470;-83
2020/12/28 10:17:15;;;;;;;24.13;11.23;;;;;;;3.76;89.56;98289.09;5052577;28;20028;-84
2020/12/28 10:19:40;;;;;;;22.88;10.65;;;;;;;3.78;89.41;98293.09;5052405;28;20037;-83
2020/12/28 10:22:07;;;;;;;17.63;10.27;;;;;;;3.79;89.52;98293.91;5051548;28;20040;-83
2020/12/28 10:24:33;;;;;;;18.85;11.77;;;;;;;3.82;89.61;98287.13;5053528;28;20049;-83
2020/12/28 10:26:58;;;;;;;20.40;10.98;;;;;;;3.84;89.29;98295.72;5051011;28;20029;-83
2020/12/28 10:29:24;;;;;;;18.80;10.52;;;;;;;3.86;89.25;98283.56;5053439;28;20023;-83
2020/12/28 10:31:49;;;;;;;17.92;9.68;;;;;;;3.86;89.29;98294.34;5051686;28;20028;-84
2020/12/28 10:34:14;;;;;;;19.30;10.75;;;;;;;3.87;89.22;98298.63;5051638;28;20083;-82
2020/12/28 10:36:40;;;;;;;18.17;9.70;;;;;;;3.88;89.40;98296.75;5051564;28;20036;-83
2020/12/28 10:39:05;;;;;;;17.50;9.75;;;;;;;3.89;89.17;98287.56;5054461;28;20020;-82
2020/12/28 10:41:34;;;;;;;19.42;10.60;;;;;;;3.90;89.53;98300.78;5034464;28;20043;-83
2020/12/28 10:44:00;;;;;;;15.52;10.02;;;;;;;3.91;89.19;98302.38;5046704;28;20031;-82
2020/12/28 10:46:25;;;;;;;18.65;10.38;;;;;;;3.93;89.26;98296.69;5053049;28;20021;-83
2020/12/28 10:48:51;;;;;;;19.65;10.38;;;;;;;3.91;89.17;98302.38;5049958;28;20033;-82
2020/12/28 10:51:16;;;;;;;15.93;10.35;;;;;;;3.92;89.36;98309.34;5051829;28;20020;-83
2020/12/28 10:53:42;;;;;;;19.35;11.45;;;;;;;3.93;89.56;98305.56;5034106;28;20033;-82
2020/12/28 10:56:07;;;;;;;20.52;10.88;;;;;;;3.97;89.48;98305.78;5051530;28;20016;-83
2020/12/28 10:58:35;;;;;;;23.02;11.27;;;;;;;3.99;89.12;98299.00;5051146;28;20588;-82
2020/12/28 11:01:02;;;;;;;21.38;11.68;;;;;;;4.02;89.04;98299.53;5035264;28;20024;-82
2020/12/28 11:03:27;;;;;;;17.58;11.23;;;;;;;4.03;89.15;98293.84;5052070;28;20542;-83
2020/12/28 11:05:52;;;;;;;18.33;11.00;;;;;;;4.06;89.08;98297.84;5052827;28;20173;-83
2020/12/28 11:08:18;;;;;;;20.95;11.52;;;;;;;4.09;89.22;98302.66;5050935;28;20017;-83
2020/12/28 11:10:43;;;;;;;18.08;11.15;;;;;;;4.11;89.21;98290.47;5050720;28;20048;-83
2020/12/28 11:13:09;;;;;;;17.98;10.88;;;;;;;4.13;89.53;98292.91;5049826;28;20044;-83
2020/12/28 11:15:34;;;;;;;19.70;11.55;;;;;;;4.13;89.37;98288.28;5051239;28;20032;-83
2020/12/28 11:18:00;;;;;;;18.15;10.30;;;;;;;4.15;89.27;98285.31;5050570;28;20104;-84
2020/12/28 11:20:26;;;;;;;18.48;10.88;;;;;;;4.18;89.20;98284.72;5052220;28;20031;-83
2020/12/28 11:22:51;;;;;;;19.30;10.50;;;;;;;4.21;89.36;98284.13;5051891;28;20029;-83
2020/12/28 11:25:17;;;;;;;20.55;10.85;;;;;;;4.22;89.37;98281.13;5051173;28;20484;-83
2020/12/28 11:27:43;;;;;;;18.08;10.75;;;;;;;4.24;88.99;98272.75;5051620;28;20025;-84
2020/12/28 11:30:08;;;;;;;23.85;12.80;;;;;;;4.26;89.36;98277.88;5052487;28;20025;-83
2020/12/28 11:32:33;;;;;;;16.48;11.10;;;;;;;4.28;89.12;98279.16;5050162;28;20113;-82